createdAt,value
2016-09-02T00:00:14.472Z,0
2016-09-02T00:01:13.660Z,0
2016-09-02T00:02:13.654Z,0
2016-09-02T00:03:13.631Z,0
2016-09-02T00:04:14.336Z,0
2016-09-02T00:05:13.616Z,0
2016-09-02T00:06:13.601Z,0
2016-09-02T00:07:14.519Z,0
2016-09-02T00:08:13.578Z,0
2016-09-02T00:09:14.287Z,0
2016-09-02T00:10:14.271Z,0
2016-09-02T00:11:13.559Z,0
2016-09-02T00:12:14.268Z,0
2016-09-02T00:13:13.539Z,0
2016-09-02T00:14:14.250Z,0
2016-09-02T00:15:13.517Z,0
2016-09-02T00:16:14.926Z,0
2016-09-02T00:17:13.497Z,0
2016-09-02T00:18:13.479Z,0
2016-09-02T00:19:14.893Z,0
2016-09-02T00:20:15.622Z,0
2016-09-02T00:21:13.476Z,0
2016-09-02T00:22:13.448Z,0
2016-09-02T00:23:13.438Z,0
2016-09-02T00:24:14.147Z,0
2016-09-02T00:25:13.786Z,0
2016-09-02T00:26:14.121Z,0
2016-09-02T00:27:14.114Z,0
2016-09-02T00:28:13.390Z,0
2016-09-02T00:29:14.095Z,0
2016-09-02T00:30:14.079Z,0
2016-09-02T00:31:13.359Z,0
2016-09-02T00:32:14.785Z,0
2016-09-02T00:33:13.335Z,0
2016-09-02T00:34:13.343Z,0
2016-09-02T00:35:14.368Z,0
2016-09-02T00:36:14.021Z,0
2016-09-02T00:37:13.321Z,0
2016-09-02T00:38:14.050Z,0
2016-09-02T00:39:14.005Z,0
2016-09-02T00:40:14.699Z,0
2016-09-02T00:41:13.270Z,0
2016-09-02T00:42:14.679Z,0
2016-09-02T00:43:13.955Z,0
2016-09-02T00:44:13.959Z,0
2016-09-02T00:45:14.562Z,0
2016-09-02T00:46:13.274Z,0
2016-09-02T00:47:13.936Z,0
2016-09-02T00:48:13.201Z,0
2016-09-02T00:49:13.901Z,0
2016-09-02T00:50:14.606Z,0
2016-09-02T00:51:13.172Z,0
2016-09-02T00:52:13.862Z,0
2016-09-02T00:53:13.855Z,0
2016-09-02T00:54:13.843Z,0
2016-09-02T00:55:15.252Z,0
2016-09-02T00:56:13.825Z,0
2016-09-02T00:57:13.817Z,0
2016-09-02T00:58:13.808Z,0
2016-09-02T00:59:13.089Z,0
2016-09-02T01:00:13.790Z,0
2016-09-02T01:01:13.773Z,0
2016-09-02T01:02:13.060Z,0
2016-09-02T01:03:13.053Z,0
2016-09-02T01:04:13.752Z,0
2016-09-02T01:05:13.745Z,0
2016-09-02T01:06:13.017Z,0
2016-09-02T01:07:13.013Z,0
2016-09-02T01:08:13.706Z,0
2016-09-02T01:09:13.708Z,0
2016-09-02T01:10:12.985Z,0
2016-09-02T01:11:12.967Z,0
2016-09-02T01:12:12.976Z,0
2016-09-02T01:13:12.955Z,0
2016-09-02T01:14:12.980Z,0
2016-09-02T01:15:14.384Z,0
2016-09-02T01:16:13.627Z,0
2016-09-02T01:17:12.910Z,0
2016-09-02T01:18:14.315Z,0
2016-09-02T01:19:14.342Z,0
2016-09-02T01:20:13.688Z,0
2016-09-02T01:21:12.870Z,0
2016-09-02T01:22:13.574Z,0
2016-09-02T01:23:13.557Z,0
2016-09-02T01:24:13.554Z,0
2016-09-02T01:25:12.838Z,0
2016-09-02T01:26:12.822Z,0
2016-09-02T01:27:12.828Z,0
2016-09-02T01:28:13.508Z,0
2016-09-02T01:29:14.202Z,0
2016-09-02T01:30:12.785Z,0
2016-09-02T01:31:13.479Z,0
2016-09-02T01:32:12.789Z,0
2016-09-02T01:33:12.753Z,0
2016-09-02T01:34:12.758Z,0
2016-09-02T01:35:12.754Z,0
2016-09-02T01:36:12.721Z,0
2016-09-02T01:37:13.421Z,0
2016-09-02T01:38:12.753Z,0
2016-09-02T01:39:12.698Z,0
2016-09-02T01:40:13.673Z,0
2016-09-02T01:41:12.694Z,0
2016-09-02T01:42:13.381Z,0
2016-09-02T01:43:13.362Z,0
2016-09-02T01:44:12.654Z,0
2016-09-02T01:45:14.165Z,0
2016-09-02T01:46:12.621Z,0
2016-09-02T01:47:12.627Z,0
2016-09-02T01:48:14.727Z,0
2016-09-02T01:49:14.014Z,0
2016-09-02T01:50:14.007Z,0
2016-09-02T01:51:12.577Z,0
2016-09-02T01:52:14.682Z,0
2016-09-02T01:53:13.270Z,0
2016-09-02T01:54:13.953Z,0
2016-09-02T01:55:13.968Z,0
2016-09-02T01:56:12.522Z,0
2016-09-02T01:57:13.225Z,0
2016-09-02T01:58:14.630Z,0
2016-09-02T01:59:12.500Z,0
2016-09-02T02:00:12.489Z,0
2016-09-02T02:01:13.180Z,0
2016-09-02T02:02:13.170Z,0
2016-09-02T02:03:13.875Z,0
2016-09-02T02:04:12.433Z,0
2016-09-02T02:05:12.435Z,0
2016-09-02T02:06:13.128Z,0
2016-09-02T02:07:13.753Z,0
2016-09-02T02:08:13.115Z,0
2016-09-02T02:09:12.392Z,0
2016-09-02T02:10:12.407Z,0
2016-09-02T02:11:13.075Z,0
2016-09-02T02:12:13.099Z,0
2016-09-02T02:13:12.346Z,0
2016-09-02T02:14:12.366Z,0
2016-09-02T02:15:13.035Z,0
2016-09-02T02:16:12.323Z,0
2016-09-02T02:17:13.019Z,0
2016-09-02T02:18:12.298Z,0
2016-09-02T02:19:13.700Z,0
2016-09-02T02:20:12.824Z,0
2016-09-02T02:21:12.280Z,0
2016-09-02T02:22:12.272Z,0
2016-09-02T02:23:12.247Z,0
2016-09-02T02:24:12.939Z,0
2016-09-02T02:25:12.226Z,0
2016-09-02T02:26:12.222Z,0
2016-09-02T02:27:12.211Z,0
2016-09-02T02:28:12.198Z,0
2016-09-02T02:29:13.608Z,0
2016-09-02T02:30:12.892Z,0
2016-09-02T02:31:12.161Z,0
2016-09-02T02:32:12.865Z,0
2016-09-02T02:33:12.155Z,0
2016-09-02T02:34:12.133Z,0
2016-09-02T02:35:12.857Z,0
2016-09-02T02:36:12.115Z,0
2016-09-02T02:37:12.107Z,0
2016-09-02T02:38:13.571Z,0
2016-09-02T02:39:12.099Z,0
2016-09-02T02:40:13.496Z,0
2016-09-02T02:41:12.765Z,0
2016-09-02T02:42:12.077Z,0
2016-09-02T02:43:12.752Z,0
2016-09-02T02:44:13.444Z,0
2016-09-02T02:45:12.730Z,0
2016-09-02T02:46:12.022Z,0
2016-09-02T02:47:12.025Z,0
2016-09-02T02:48:12.709Z,0
2016-09-02T02:49:12.683Z,0
2016-09-02T02:50:13.665Z,0
2016-09-02T02:51:12.673Z,0
2016-09-02T02:52:12.657Z,0
2016-09-02T02:53:11.981Z,0
2016-09-02T02:54:12.853Z,0
2016-09-02T02:55:13.344Z,0
2016-09-02T02:56:12.634Z,0
2016-09-02T02:57:14.163Z,0
2016-09-02T02:58:14.050Z,0
2016-09-02T02:59:13.324Z,0
2016-09-02T03:00:13.356Z,0
2016-09-02T03:01:13.289Z,0
2016-09-02T03:02:11.865Z,0
2016-09-02T03:03:12.059Z,0
2016-09-02T03:04:13.264Z,0
2016-09-02T03:05:12.737Z,0
2016-09-02T03:06:11.828Z,0
2016-09-02T03:07:12.513Z,0
2016-09-02T03:08:12.501Z,0
2016-09-02T03:09:13.221Z,0
2016-09-02T03:10:12.547Z,0
2016-09-02T03:11:11.753Z,0
2016-09-02T03:12:11.739Z,0
2016-09-02T03:13:12.446Z,0
2016-09-02T03:14:12.432Z,0
2016-09-02T03:15:13.148Z,0
2016-09-02T03:16:11.760Z,0
2016-09-02T03:17:11.687Z,0
2016-09-02T03:18:12.394Z,0
2016-09-02T03:19:12.385Z,0
2016-09-02T03:20:13.116Z,0
2016-09-02T03:21:11.654Z,0
2016-09-02T03:22:11.639Z,0
2016-09-02T03:23:11.639Z,0
2016-09-02T03:24:11.647Z,0
2016-09-02T03:25:12.317Z,0
2016-09-02T03:26:11.597Z,0
2016-09-02T03:27:11.585Z,0
2016-09-02T03:28:12.284Z,0
2016-09-02T03:29:11.568Z,0
2016-09-02T03:30:11.599Z,0
2016-09-02T03:31:11.546Z,0
2016-09-02T03:32:11.547Z,0
2016-09-02T03:33:12.949Z,0
2016-09-02T03:34:12.220Z,0
2016-09-02T03:35:12.219Z,0
2016-09-02T03:36:11.485Z,0
2016-09-02T03:37:12.197Z,0
2016-09-02T03:38:12.184Z,0
2016-09-02T03:39:12.175Z,0
2016-09-02T03:40:11.568Z,0
2016-09-02T03:41:11.435Z,0
2016-09-02T03:42:11.427Z,0
2016-09-02T03:43:11.427Z,0
2016-09-02T03:44:12.822Z,0
2016-09-02T03:45:12.112Z,0
2016-09-02T03:46:12.113Z,0
2016-09-02T03:47:11.374Z,0
2016-09-02T03:48:11.438Z,0
2016-09-02T03:49:11.360Z,0
2016-09-02T03:50:11.347Z,0
2016-09-02T03:51:12.755Z,0
2016-09-02T03:52:11.315Z,0
2016-09-02T03:53:12.723Z,0
2016-09-02T03:54:12.024Z,0
2016-09-02T03:55:12.007Z,0
2016-09-02T03:56:11.297Z,0
2016-09-02T03:57:11.988Z,0
2016-09-02T03:58:11.268Z,0
2016-09-02T03:59:11.989Z,0
2016-09-02T04:00:11.252Z,0
2016-09-02T04:01:11.223Z,0
2016-09-02T04:02:11.213Z,0
2016-09-02T04:03:11.913Z,0
2016-09-02T04:04:11.190Z,0
2016-09-02T04:05:11.899Z,0
2016-09-02T04:06:11.182Z,0
2016-09-02T04:07:11.895Z,0
2016-09-02T04:08:11.372Z,0
2016-09-02T04:09:12.559Z,0
2016-09-02T04:10:11.132Z,0
2016-09-02T04:11:11.819Z,0
2016-09-02T04:12:11.112Z,0
2016-09-02T04:13:11.113Z,0
2016-09-02T04:14:11.805Z,0
2016-09-02T04:15:11.785Z,0
2016-09-02T04:16:11.070Z,0
2016-09-02T04:17:11.058Z,0
2016-09-02T04:18:11.049Z,0
2016-09-02T04:19:11.027Z,0
2016-09-02T04:20:12.685Z,0
2016-09-02T04:21:11.013Z,0
2016-09-02T04:22:10.996Z,0
2016-09-02T04:23:11.693Z,0
2016-09-02T04:24:11.687Z,0
2016-09-02T04:25:11.688Z,0
2016-09-02T04:26:10.963Z,0
2016-09-02T04:27:10.963Z,0
2016-09-02T04:28:10.938Z,0
2016-09-02T04:29:10.946Z,0
2016-09-02T04:30:11.241Z,0
2016-09-02T04:31:11.661Z,0
2016-09-02T04:32:10.892Z,0
2016-09-02T04:33:11.589Z,0
2016-09-02T04:34:11.594Z,0
2016-09-02T04:35:11.579Z,0
2016-09-02T04:36:13.016Z,0
2016-09-02T04:37:10.884Z,0
2016-09-02T04:38:12.274Z,0
2016-09-02T04:39:11.526Z,0
2016-09-02T04:40:10.813Z,0
2016-09-02T04:41:12.222Z,0
2016-09-02T04:42:11.493Z,0
2016-09-02T04:43:12.942Z,0
2016-09-02T04:44:10.784Z,0
2016-09-02T04:45:11.490Z,0
2016-09-02T04:46:11.457Z,0
2016-09-02T04:47:12.156Z,0
2016-09-02T04:48:10.724Z,0
2016-09-02T04:49:11.421Z,5
2016-09-02T04:50:11.224Z,5
2016-09-02T04:51:11.402Z,5
2016-09-02T04:52:10.685Z,5
2016-09-02T04:53:12.118Z,5
2016-09-02T04:54:12.083Z,5
2016-09-02T04:55:11.360Z,5
2016-09-02T04:56:10.645Z,10
2016-09-02T04:57:10.619Z,10
2016-09-02T04:58:12.058Z,10
2016-09-02T04:59:10.604Z,10
2016-09-02T05:00:11.305Z,10
2016-09-02T05:01:12.742Z,15
2016-09-02T05:02:11.986Z,15
2016-09-02T05:03:11.280Z,15
2016-09-02T05:04:10.554Z,15
2016-09-02T05:05:11.420Z,15
2016-09-02T05:06:10.547Z,20
2016-09-02T05:07:11.933Z,20
2016-09-02T05:08:11.211Z,20
2016-09-02T05:09:11.914Z,20
2016-09-02T05:10:11.910Z,20
2016-09-02T05:11:11.891Z,20
2016-09-02T05:12:10.469Z,20
2016-09-02T05:13:11.161Z,25
2016-09-02T05:14:10.457Z,25
2016-09-02T05:15:10.451Z,25
2016-09-02T05:16:10.422Z,25
2016-09-02T05:17:11.119Z,25
2016-09-02T05:18:11.107Z,25
2016-09-02T05:19:10.386Z,25
2016-09-02T05:20:10.793Z,30
2016-09-02T05:21:10.366Z,30
2016-09-02T05:22:10.372Z,30
2016-09-02T05:23:10.342Z,30
2016-09-02T05:24:11.745Z,30
2016-09-02T05:25:11.206Z,30
2016-09-02T05:26:10.318Z,30
2016-09-02T05:27:10.303Z,35
2016-09-02T05:28:10.294Z,35
2016-09-02T05:29:10.289Z,35
2016-09-02T05:30:10.980Z,35
2016-09-02T05:31:10.256Z,40
2016-09-02T05:32:10.248Z,40
2016-09-02T05:33:10.241Z,45
2016-09-02T05:34:11.650Z,45
2016-09-02T05:35:11.049Z,50
2016-09-02T05:36:10.208Z,50
2016-09-02T05:37:10.207Z,50
2016-09-02T05:38:10.236Z,50
2016-09-02T05:39:10.164Z,50
2016-09-02T05:40:10.171Z,50
2016-09-02T05:41:10.187Z,50
2016-09-02T05:42:10.863Z,55
2016-09-02T05:43:11.566Z,55
2016-09-02T05:44:10.836Z,55
2016-09-02T05:45:10.317Z,55
2016-09-02T05:46:10.812Z,55
2016-09-02T05:47:10.803Z,55
2016-09-02T05:48:11.520Z,55
2016-09-02T05:49:12.204Z,55
2016-09-02T05:50:11.692Z,55
2016-09-02T05:51:11.460Z,55
2016-09-02T05:52:10.038Z,55
2016-09-02T05:53:11.453Z,55
2016-09-02T05:54:10.036Z,55
2016-09-02T05:55:10.007Z,55
2016-09-02T05:56:09.997Z,55
2016-09-02T05:57:09.984Z,55
2016-09-02T05:58:09.975Z,55
2016-09-02T05:59:09.958Z,55
2016-09-02T06:00:11.800Z,55
2016-09-02T06:01:09.943Z,55
2016-09-02T06:02:09.937Z,55
2016-09-02T06:03:09.934Z,55
2016-09-02T06:04:10.624Z,55
2016-09-02T06:05:11.499Z,55
2016-09-02T06:06:09.900Z,55
2016-09-02T06:07:09.882Z,55
2016-09-02T06:08:10.795Z,60
2016-09-02T06:09:11.288Z,60
2016-09-02T06:10:11.273Z,65
2016-09-02T06:11:09.852Z,65
2016-09-02T06:12:10.546Z,65
2016-09-02T06:13:09.820Z,65
2016-09-02T06:14:10.543Z,65
2016-09-02T06:15:10.597Z,70
2016-09-02T06:16:10.500Z,70
2016-09-02T06:17:09.788Z,70
2016-09-02T06:18:10.485Z,70
2016-09-02T06:19:10.468Z,75
2016-09-02T06:20:09.832Z,80
2016-09-02T06:21:09.761Z,85
2016-09-02T06:22:09.732Z,90
2016-09-02T06:23:10.470Z,90
2016-09-02T06:24:10.422Z,95
2016-09-02T06:25:10.427Z,95
2016-09-02T06:26:09.702Z,95
2016-09-02T06:27:10.390Z,100
2016-09-02T06:28:11.143Z,100
2016-09-02T06:29:09.668Z,100
2016-09-02T06:30:11.126Z,100
2016-09-02T06:31:09.663Z,100
2016-09-02T06:32:11.763Z,100
2016-09-02T06:33:10.341Z,100
2016-09-02T06:34:10.328Z,100
2016-09-02T06:35:10.092Z,100
2016-09-02T06:36:10.400Z,100
2016-09-02T06:37:09.591Z,105
2016-09-02T06:38:10.290Z,105
2016-09-02T06:39:12.009Z,105
2016-09-02T06:40:10.271Z,110
2016-09-02T06:41:09.555Z,110
2016-09-02T06:42:09.549Z,105
2016-09-02T06:43:09.533Z,110
2016-09-02T06:44:09.528Z,110
2016-09-02T06:45:09.581Z,110
2016-09-02T06:46:09.503Z,115
2016-09-02T06:47:10.212Z,120
2016-09-02T06:48:10.201Z,125
2016-09-02T06:49:09.491Z,125
2016-09-02T06:50:09.766Z,130
2016-09-02T06:51:10.873Z,130
2016-09-02T06:52:09.449Z,135
2016-09-02T06:53:09.451Z,135
2016-09-02T06:54:10.855Z,135
2016-09-02T06:55:09.453Z,140
2016-09-02T06:56:10.125Z,140
2016-09-02T06:57:10.115Z,140
2016-09-02T06:58:10.114Z,135
2016-09-02T06:59:09.402Z,135
2016-09-02T07:00:12.090Z,135
2016-09-02T07:01:09.377Z,140
2016-09-02T07:02:10.069Z,130
2016-09-02T07:03:09.351Z,130
2016-09-02T07:04:10.055Z,125
2016-09-02T07:05:09.336Z,125
2016-09-02T07:06:09.336Z,125
2016-09-02T07:07:09.326Z,125
2016-09-02T07:08:10.742Z,120
2016-09-02T07:09:09.305Z,120
2016-09-02T07:10:10.712Z,120
2016-09-02T07:11:09.996Z,120
2016-09-02T07:12:09.274Z,120
2016-09-02T07:13:09.270Z,125
2016-09-02T07:14:09.968Z,125
2016-09-02T07:15:09.264Z,130
2016-09-02T07:16:09.955Z,130
2016-09-02T07:17:09.232Z,135
2016-09-02T07:18:09.232Z,135
2016-09-02T07:19:09.220Z,135
2016-09-02T07:20:10.164Z,140
2016-09-02T07:21:09.908Z,140
2016-09-02T07:22:09.995Z,145
2016-09-02T07:23:09.192Z,150
2016-09-02T07:24:09.988Z,150
2016-09-02T07:25:10.225Z,150
2016-09-02T07:26:09.174Z,150
2016-09-02T07:27:09.856Z,155
2016-09-02T07:28:09.150Z,150
2016-09-02T07:29:09.840Z,150
2016-09-02T07:30:09.836Z,150
2016-09-02T07:31:09.884Z,150
2016-09-02T07:32:10.587Z,155
2016-09-02T07:33:09.101Z,155
2016-09-02T07:34:09.101Z,155
2016-09-02T07:35:10.008Z,155
2016-09-02T07:36:09.081Z,150
2016-09-02T07:37:09.075Z,155
2016-09-02T07:38:10.550Z,155
2016-09-02T07:39:09.801Z,155
2016-09-02T07:40:09.763Z,155
2016-09-02T07:41:09.745Z,155
2016-09-02T07:42:09.034Z,155
2016-09-02T07:43:09.735Z,155
2016-09-02T07:44:09.717Z,155
2016-09-02T07:45:11.253Z,160
2016-09-02T07:46:09.001Z,160
2016-09-02T07:47:08.999Z,160
2016-09-02T07:48:09.695Z,155
2016-09-02T07:49:09.703Z,150
2016-09-02T07:50:10.400Z,150
2016-09-02T07:51:09.675Z,150
2016-09-02T07:52:08.957Z,150
2016-09-02T07:53:08.956Z,150
2016-09-02T07:54:08.954Z,155
2016-09-02T07:55:09.644Z,160
2016-09-02T07:56:09.647Z,160
2016-09-02T07:57:09.632Z,155
2016-09-02T07:58:09.619Z,155
2016-09-02T07:59:10.334Z,155
2016-09-02T08:00:08.997Z,155
2016-09-02T08:01:08.892Z,155
2016-09-02T08:02:08.882Z,150
2016-09-02T08:03:08.874Z,145
2016-09-02T08:04:10.282Z,145
2016-09-02T08:05:10.270Z,140
2016-09-02T08:06:08.852Z,135
2016-09-02T08:07:08.871Z,135
2016-09-02T08:08:09.764Z,130
2016-09-02T08:09:09.535Z,125
2016-09-02T08:10:08.823Z,130
2016-09-02T08:11:08.816Z,145
2016-09-02T08:12:08.808Z,140
2016-09-02T08:13:09.529Z,155
2016-09-02T08:14:08.795Z,335
2016-09-02T08:15:08.985Z,315
2016-09-02T08:16:08.780Z,155
2016-09-02T08:17:09.473Z,155
2016-09-02T08:18:08.760Z,315
2016-09-02T08:19:09.462Z,330
2016-09-02T08:20:09.352Z,195
2016-09-02T08:21:08.743Z,165
2016-09-02T08:22:09.446Z,340
2016-09-02T08:23:08.739Z,415
2016-09-02T08:24:08.735Z,475
2016-09-02T08:25:09.848Z,515
2016-09-02T08:26:09.415Z,270
2016-09-02T08:27:08.703Z,225
2016-09-02T08:28:10.118Z,205
2016-09-02T08:29:09.405Z,175
2016-09-02T08:30:10.092Z,160
2016-09-02T08:31:08.683Z,180
2016-09-02T08:32:09.374Z,165
2016-09-02T08:33:09.362Z,170
2016-09-02T08:34:09.363Z,170
2016-09-02T08:35:09.351Z,175
2016-09-02T08:36:09.350Z,185
2016-09-02T08:37:08.634Z,190
2016-09-02T08:38:10.035Z,190
2016-09-02T08:39:08.668Z,195
2016-09-02T08:40:10.032Z,195
2016-09-02T08:41:09.313Z,195
2016-09-02T08:42:08.646Z,195
2016-09-02T08:43:08.594Z,195
2016-09-02T08:44:08.593Z,185
2016-09-02T08:45:10.153Z,170
2016-09-02T08:46:09.291Z,170
2016-09-02T08:47:08.570Z,190
2016-09-02T08:48:09.265Z,195
2016-09-02T08:49:09.965Z,185
2016-09-02T08:50:09.965Z,185
2016-09-02T08:51:09.245Z,170
2016-09-02T08:52:09.239Z,160
2016-09-02T08:53:08.524Z,170
2016-09-02T08:54:08.529Z,170
2016-09-02T08:55:08.513Z,165
2016-09-02T08:56:09.210Z,165
2016-09-02T08:57:08.498Z,160
2016-09-02T08:58:09.206Z,170
2016-09-02T08:59:09.198Z,210
2016-09-02T09:00:12.168Z,170
2016-09-02T09:01:08.481Z,180
2016-09-02T09:02:08.470Z,170
2016-09-02T09:03:09.171Z,165
2016-09-02T09:04:10.582Z,175
2016-09-02T09:05:08.441Z,185
2016-09-02T09:06:09.155Z,190
2016-09-02T09:07:09.144Z,190
2016-09-02T09:08:08.448Z,185
2016-09-02T09:09:09.840Z,185
2016-09-02T09:10:08.421Z,195
2016-09-02T09:11:09.119Z,205
2016-09-02T09:12:08.409Z,265
2016-09-02T09:13:08.397Z,305
2016-09-02T09:14:08.388Z,260
2016-09-02T09:15:09.150Z,230
2016-09-02T09:16:09.090Z,265
2016-09-02T09:17:09.789Z,300
2016-09-02T09:18:09.067Z,330
2016-09-02T09:19:08.361Z,345
2016-09-02T09:20:09.509Z,285
2016-09-02T09:21:08.760Z,265
2016-09-02T09:22:09.047Z,290
2016-09-02T09:23:08.338Z,420
2016-09-02T09:24:09.047Z,330
2016-09-02T09:25:09.750Z,215
2016-09-02T09:26:10.449Z,185
2016-09-02T09:27:08.315Z,195
2016-09-02T09:28:09.016Z,210
2016-09-02T09:29:08.308Z,245
2016-09-02T09:30:09.026Z,265
2016-09-02T09:31:08.993Z,275
2016-09-02T09:32:08.286Z,315
2016-09-02T09:33:08.988Z,255
2016-09-02T09:34:08.266Z,275
2016-09-02T09:35:08.972Z,325
2016-09-02T09:36:08.260Z,270
2016-09-02T09:37:08.254Z,285
2016-09-02T09:38:09.712Z,295
2016-09-02T09:39:09.018Z,280
2016-09-02T09:40:08.264Z,300
2016-09-02T09:41:08.259Z,325
2016-09-02T09:42:08.242Z,340
2016-09-02T09:43:08.222Z,325
2016-09-02T09:44:09.631Z,290
2016-09-02T09:45:08.215Z,280
2016-09-02T09:46:08.916Z,270
2016-09-02T09:47:11.026Z,260
2016-09-02T09:48:08.191Z,255
2016-09-02T09:49:08.896Z,285
2016-09-02T09:50:09.606Z,255
2016-09-02T09:51:08.172Z,300
2016-09-02T09:52:08.171Z,320
2016-09-02T09:53:09.579Z,300
2016-09-02T09:54:08.164Z,280
2016-09-02T09:55:10.198Z,310
2016-09-02T09:56:08.144Z,275
2016-09-02T09:57:09.555Z,275
2016-09-02T09:58:08.838Z,245
2016-09-02T09:59:08.847Z,240
2016-09-02T10:00:09.711Z,225
2016-09-02T10:01:08.827Z,230
2016-09-02T10:02:08.819Z,230
2016-09-02T10:03:08.811Z,250
2016-09-02T10:04:08.109Z,255
2016-09-02T10:05:09.852Z,265
2016-09-02T10:06:08.103Z,285
2016-09-02T10:07:08.787Z,315
2016-09-02T10:08:08.986Z,845
2016-09-02T10:09:08.776Z,365
2016-09-02T10:10:08.775Z,340
2016-09-02T10:11:08.776Z,585
2016-09-02T10:12:08.056Z,550
2016-09-02T10:13:10.180Z,380
2016-09-02T10:14:08.042Z,480
2016-09-02T10:15:08.045Z,430
2016-09-02T10:16:08.041Z,350
2016-09-02T10:17:08.031Z,365
2016-09-02T10:18:08.746Z,395
2016-09-02T10:19:08.024Z,415
2016-09-02T10:20:08.729Z,390
2016-09-02T10:21:09.441Z,430
2016-09-02T10:22:07.996Z,405
2016-09-02T10:23:08.707Z,400
2016-09-02T10:24:07.993Z,410
2016-09-02T10:25:08.000Z,405
2016-09-02T10:26:08.696Z,380
2016-09-02T10:27:07.984Z,370
2016-09-02T10:28:07.974Z,350
2016-09-02T10:29:08.689Z,335
2016-09-02T10:30:10.119Z,335
2016-09-02T10:31:07.981Z,325
2016-09-02T10:32:07.974Z,315
2016-09-02T10:33:08.686Z,315
2016-09-02T10:34:08.669Z,310
2016-09-02T10:35:10.865Z,330
2016-09-02T10:36:08.687Z,240
2016-09-02T10:37:09.347Z,250
2016-09-02T10:38:08.629Z,265
2016-09-02T10:39:07.929Z,240
2016-09-02T10:40:09.538Z,285
2016-09-02T10:41:09.321Z,245
2016-09-02T10:42:07.903Z,245
2016-09-02T10:43:07.900Z,255
2016-09-02T10:44:08.601Z,250
2016-09-02T10:45:07.892Z,265
2016-09-02T10:46:08.594Z,275
2016-09-02T10:47:08.583Z,270
2016-09-02T10:48:08.580Z,260
2016-09-02T10:49:07.861Z,270
2016-09-02T10:50:08.573Z,275
2016-09-02T10:51:08.557Z,310
2016-09-02T10:52:08.555Z,295
2016-09-02T10:53:09.277Z,295
2016-09-02T10:54:08.566Z,310
2016-09-02T10:55:09.267Z,310
2016-09-02T10:56:08.553Z,325
2016-09-02T10:57:09.250Z,350
2016-09-02T10:58:07.827Z,340
2016-09-02T10:59:08.524Z,350
2016-09-02T11:00:10.030Z,520
2016-09-02T11:01:08.514Z,500
2016-09-02T11:02:08.508Z,460
2016-09-02T11:03:07.805Z,390
2016-09-02T11:04:08.502Z,400
2016-09-02T11:05:09.230Z,370
2016-09-02T11:06:07.791Z,530
2016-09-02T11:07:07.775Z,390
2016-09-02T11:08:07.784Z,660
2016-09-02T11:09:07.773Z,905
2016-09-02T11:10:08.469Z,1120
2016-09-02T11:11:08.460Z,870
2016-09-02T11:12:08.464Z,695
2016-09-02T11:13:07.755Z,605
2016-09-02T11:14:09.163Z,475
2016-09-02T11:15:08.950Z,595
2016-09-02T11:16:07.742Z,535
2016-09-02T11:17:07.736Z,645
2016-09-02T11:18:08.447Z,1185
2016-09-02T11:19:09.171Z,1230
2016-09-02T11:20:08.738Z,1080
2016-09-02T11:21:08.432Z,1500
2016-09-02T11:22:08.430Z,1365
2016-09-02T11:23:09.125Z,1430
2016-09-02T11:24:08.426Z,1395
2016-09-02T11:25:08.419Z,1485
2016-09-02T11:26:07.705Z,1490
2016-09-02T11:27:10.629Z,1440
2016-09-02T11:28:07.710Z,1410
2016-09-02T11:29:08.432Z,1475
2016-09-02T11:30:09.413Z,1535
2016-09-02T11:31:07.700Z,1480
2016-09-02T11:32:07.705Z,1415
2016-09-02T11:33:07.699Z,1420
2016-09-02T11:34:09.113Z,1450
2016-09-02T11:35:09.465Z,1480
2016-09-02T11:36:08.404Z,1435
2016-09-02T11:37:07.689Z,1355
2016-09-02T11:38:08.402Z,1275
2016-09-02T11:39:08.454Z,1450
2016-09-02T11:40:07.717Z,1715
2016-09-02T11:41:08.405Z,1785
2016-09-02T11:42:07.692Z,1435
2016-09-02T11:43:07.697Z,1850
2016-09-02T11:44:07.704Z,1835
2016-09-02T11:45:09.726Z,1870
2016-09-02T11:46:08.412Z,1920
2016-09-02T11:47:07.707Z,1975
2016-09-02T11:48:08.410Z,1865
2016-09-02T11:49:08.409Z,1900
2016-09-02T11:50:11.186Z,1835
2016-09-02T11:51:07.756Z,1795
2016-09-02T11:52:08.415Z,1800
2016-09-02T11:53:08.417Z,1755
2016-09-02T11:54:08.434Z,1670
2016-09-02T11:55:09.051Z,1770
2016-09-02T11:56:09.183Z,1755
2016-09-02T11:57:07.720Z,1800
2016-09-02T11:58:09.133Z,1815
2016-09-02T11:59:09.137Z,1875
2016-09-02T12:00:08.445Z,1820
2016-09-02T12:01:09.147Z,1815
2016-09-02T12:02:08.475Z,1765
2016-09-02T12:03:07.742Z,1680
2016-09-02T12:04:08.563Z,1670
2016-09-02T12:05:10.599Z,1725
2016-09-02T12:06:09.146Z,1805
2016-09-02T12:07:07.741Z,1810
2016-09-02T12:08:08.641Z,1790
2016-09-02T12:09:08.451Z,1720
2016-09-02T12:10:08.479Z,1685
2016-09-02T12:11:07.750Z,1725
2016-09-02T12:12:07.759Z,1770
2016-09-02T12:13:08.478Z,1810
2016-09-02T12:14:09.165Z,1810
2016-09-02T12:15:07.754Z,1775
2016-09-02T12:16:08.467Z,1700
2016-09-02T12:17:07.834Z,1640
2016-09-02T12:18:09.203Z,1690
2016-09-02T12:19:09.200Z,1715
2016-09-02T12:20:09.050Z,1830
2016-09-02T12:21:09.199Z,1870
2016-09-02T12:22:08.509Z,1870
2016-09-02T12:23:09.196Z,1865
2016-09-02T12:24:09.197Z,1835
2016-09-02T12:25:09.473Z,1880
2016-09-02T12:26:07.784Z,1950
2016-09-02T12:27:08.502Z,1975
2016-09-02T12:28:08.502Z,1940
2016-09-02T12:29:08.502Z,1865
2016-09-02T12:30:07.796Z,1790
2016-09-02T12:31:08.512Z,1735
2016-09-02T12:32:08.509Z,1775
2016-09-02T12:33:07.810Z,1750
2016-09-02T12:34:08.520Z,1730
2016-09-02T12:35:09.225Z,1765
2016-09-02T12:36:07.813Z,1785
2016-09-02T12:37:09.266Z,1715
2016-09-02T12:38:08.561Z,1820
2016-09-02T12:39:07.907Z,1805
2016-09-02T12:40:08.655Z,1850
2016-09-02T12:41:07.834Z,1830
2016-09-02T12:42:07.837Z,1845
2016-09-02T12:43:09.259Z,1810
2016-09-02T12:44:08.556Z,1920
2016-09-02T12:45:07.847Z,1885
2016-09-02T12:46:07.845Z,1880
2016-09-02T12:47:07.849Z,1810
2016-09-02T12:48:08.558Z,1825
2016-09-02T12:49:07.850Z,1640
2016-09-02T12:50:08.578Z,1710
2016-09-02T12:51:07.866Z,1740
2016-09-02T12:52:08.571Z,1770
2016-09-02T12:53:07.867Z,1700
2016-09-02T12:54:08.580Z,1730
2016-09-02T12:55:08.585Z,1785
2016-09-02T12:56:09.294Z,1630
2016-09-02T12:57:08.634Z,1405
2016-09-02T12:58:07.906Z,1225
2016-09-02T12:59:07.901Z,1175
2016-09-02T13:00:08.831Z,1380
2016-09-02T13:01:09.310Z,1395
2016-09-02T13:02:08.602Z,1495
2016-09-02T13:03:07.893Z,1525
2016-09-02T13:04:07.982Z,1590
2016-09-02T13:05:08.041Z,1705
2016-09-02T13:06:07.920Z,1775
2016-09-02T13:07:07.913Z,1780
2016-09-02T13:08:07.934Z,1655
2016-09-02T13:09:07.915Z,1620
2016-09-02T13:10:08.796Z,1665
2016-09-02T13:11:07.911Z,1605
2016-09-02T13:12:07.927Z,1765
2016-09-02T13:13:08.655Z,1870
2016-09-02T13:14:07.919Z,1810
2016-09-02T13:15:09.352Z,1725
2016-09-02T13:16:07.930Z,1665
2016-09-02T13:17:09.369Z,1785
2016-09-02T13:18:09.385Z,1815
2016-09-02T13:19:08.657Z,1800
2016-09-02T13:20:10.329Z,1695
2016-09-02T13:21:08.660Z,1620
2016-09-02T13:22:09.408Z,1650
2016-09-02T13:23:08.650Z,1680
2016-09-02T13:24:08.672Z,1600
2016-09-02T13:25:09.379Z,1510
2016-09-02T13:26:07.957Z,1450
2016-09-02T13:27:08.686Z,1445
2016-09-02T13:28:07.959Z,1460
2016-09-02T13:29:08.895Z,1550
2016-09-02T13:30:08.690Z,1530
2016-09-02T13:31:09.380Z,1505
2016-09-02T13:32:08.049Z,1460
2016-09-02T13:33:07.979Z,1465
2016-09-02T13:34:07.977Z,1445
2016-09-02T13:35:08.007Z,1495
2016-09-02T13:36:08.697Z,1455
2016-09-02T13:37:09.432Z,1420
2016-09-02T13:38:09.415Z,1400
2016-09-02T13:39:08.700Z,1400
2016-09-02T13:40:08.003Z,1385
2016-09-02T13:41:10.116Z,1445
2016-09-02T13:42:09.474Z,1325
2016-09-02T13:43:08.715Z,1310
2016-09-02T13:44:09.417Z,1325
2016-09-02T13:45:08.006Z,1360
2016-09-02T13:46:08.009Z,1390
2016-09-02T13:47:08.015Z,1345
2016-09-02T13:48:08.723Z,1335
2016-09-02T13:49:08.734Z,1370
2016-09-02T13:50:08.022Z,1305
2016-09-02T13:51:08.059Z,1245
2016-09-02T13:52:08.736Z,1350
2016-09-02T13:53:08.764Z,1245
2016-09-02T13:54:08.734Z,1210
2016-09-02T13:55:08.036Z,1235
2016-09-02T13:56:09.459Z,1300
2016-09-02T13:57:08.039Z,1315
2016-09-02T13:58:08.034Z,1270
2016-09-02T13:59:08.779Z,1230
2016-09-02T14:00:10.450Z,1325
2016-09-02T14:01:08.749Z,1370
2016-09-02T14:02:08.777Z,1330
2016-09-02T14:03:08.057Z,1270